createdAt,value
2022-11-05T00:01:54.846Z,100536.84
2022-11-05T00:04:40.004Z,100540.17
2022-11-05T00:07:31.759Z,100538.51
2022-11-05T00:10:04.281Z,100541.35
2022-11-05T00:12:54.164Z,100543.64
2022-11-05T00:15:39.190Z,100545.39
2022-11-05T00:18:05.708Z,100545.98
2022-11-05T00:20:32.127Z,100548.67
2022-11-05T00:23:22.352Z,100551.79
2022-11-05T00:26:00.797Z,100556.55
2022-11-05T00:28:29.394Z,100559.60
2022-11-05T00:31:01.428Z,100558.73
2022-11-05T00:33:28.128Z,100561.16
2022-11-05T00:35:55.305Z,100564.67
2022-11-05T00:38:21.746Z,100566.67
2022-11-05T00:40:48.311Z,100567.00
2022-11-05T00:43:33.432Z,100570.46
2022-11-05T00:45:59.967Z,100570.55
2022-11-05T00:48:45.149Z,100574.48
2022-11-05T00:51:11.732Z,100578.04
2022-11-05T00:53:38.148Z,100578.27
2022-11-05T00:56:04.676Z,100582.66
2022-11-05T00:58:31.105Z,100584.11
2022-11-05T01:00:59.924Z,100582.73
2022-11-05T01:03:32.660Z,100586.73
2022-11-05T01:06:12.706Z,100583.54
2022-11-05T01:08:40.404Z,100588.44
2022-11-05T01:11:34.392Z,100591.41
2022-11-05T01:14:02.823Z,100591.08
2022-11-05T01:16:29.483Z,100596.64
2022-11-05T01:18:55.940Z,100599.77
2022-11-05T01:21:22.535Z,100603.48
2022-11-05T01:23:49.199Z,100607.27
2022-11-05T01:26:15.678Z,100608.87
2022-11-05T01:28:42.223Z,100609.05
2022-11-05T01:31:08.693Z,100613.30
2022-11-05T01:33:35.189Z,100610.27
2022-11-05T01:36:01.777Z,100606.38
2022-11-05T01:38:28.190Z,100608.25
2022-11-05T01:40:54.861Z,100610.86
2022-11-05T01:43:23.207Z,100608.98
2022-11-05T01:45:52.444Z,100610.77
2022-11-05T01:48:23.049Z,100608.72
2022-11-05T01:50:59.501Z,100610.08
2022-11-05T01:53:48.483Z,100610.75
2022-11-05T01:56:23.341Z,100615.35
2022-11-05T01:58:57.480Z,100609.32
2022-11-05T02:01:24.539Z,100611.98
2022-11-05T02:03:54.568Z,100611.98
2022-11-05T02:06:21.590Z,100613.81
2022-11-05T02:09:08.919Z,100615.67
2022-11-05T02:11:35.447Z,100614.35
2022-11-05T02:14:01.910Z,100617.74
2022-11-05T02:16:40.620Z,100612.81
2022-11-05T02:19:19.495Z,100609.22
2022-11-05T02:21:51.641Z,100614.20
2022-11-05T02:24:31.424Z,100615.98
2022-11-05T02:27:19.003Z,100618.76
2022-11-05T02:30:04.339Z,100617.27
2022-11-05T02:32:46.279Z,100616.69
2022-11-05T02:35:29.530Z,100616.84
2022-11-05T02:38:24.987Z,100617.13
2022-11-05T02:41:12.337Z,100620.17
2022-11-05T02:44:07.602Z,100621.98
2022-11-05T02:46:54.251Z,100623.98
2022-11-05T02:49:48.993Z,100621.66
2022-11-05T02:52:25.143Z,100617.88
2022-11-05T02:55:25.767Z,100616.89
2022-11-05T02:57:52.331Z,100618.13
2022-11-05T03:00:50.408Z,100616.41
2022-11-05T03:03:27.824Z,100620.16
2022-11-05T03:06:32.229Z,100621.29
2022-11-05T03:09:43.478Z,100620.44
2022-11-05T03:12:39.306Z,100622.05
2022-11-05T03:15:39.248Z,100629.69
2022-11-05T03:18:20.298Z,100630.86
2022-11-05T03:21:06.385Z,100633.98
2022-11-05T03:23:45.024Z,100636.27
2022-11-05T03:26:18.561Z,100644.42
2022-11-05T03:28:51.763Z,100646.27
2022-11-05T03:31:20.265Z,100645.38
2022-11-05T03:33:49.216Z,100646.71
2022-11-05T03:36:27.085Z,100646.30
2022-11-05T03:38:57.112Z,100646.92
2022-11-05T03:41:25.482Z,100650.75
2022-11-05T03:43:55.525Z,100655.15
2022-11-05T03:46:29.760Z,100659.54
2022-11-05T03:49:01.254Z,100658.49
2022-11-05T03:51:51.222Z,100664.92
2022-11-05T03:54:17.857Z,100671.48
2022-11-05T03:57:29.571Z,100671.09
2022-11-05T03:59:56.253Z,100668.43
2022-11-05T04:02:25.983Z,100673.14
2022-11-05T04:04:56.246Z,100678.02
2022-11-05T04:07:41.394Z,100675.46
2022-11-05T04:10:27.384Z,100674.80
2022-11-05T04:13:12.862Z,100682.33
2022-11-05T04:15:58.094Z,100685.11
2022-11-05T04:18:24.504Z,100692.77
2022-11-05T04:21:09.851Z,100693.70
2022-11-05T04:23:54.691Z,100700.14
2022-11-05T04:26:23.398Z,100696.60
2022-11-05T04:29:09.150Z,100697.79
2022-11-05T04:31:35.652Z,100701.61
2022-11-05T04:34:02.174Z,100703.88
2022-11-05T04:36:29.289Z,100703.83
2022-11-05T04:38:56.135Z,100702.50
2022-11-05T04:41:22.803Z,100704.30
2022-11-05T04:43:49.541Z,100708.67
2022-11-05T04:46:16.087Z,100709.73
2022-11-05T04:48:42.542Z,100711.02
2022-11-05T04:51:08.967Z,100713.70
2022-11-05T04:53:35.540Z,100713.34
2022-11-05T04:56:22.912Z,100714.98
2022-11-05T04:58:50.049Z,100715.27
2022-11-05T05:01:19.789Z,100716.67
2022-11-05T05:03:53.965Z,100721.41
2022-11-05T05:06:21.430Z,100726.20
2022-11-05T05:08:49.629Z,100725.55
2022-11-05T05:11:18.321Z,100726.70
2022-11-05T05:13:45.369Z,100727.21
2022-11-05T05:16:17.512Z,100733.34
2022-11-05T05:18:46.424Z,100735.73
2022-11-05T05:21:32.218Z,100735.07
2022-11-05T05:23:58.770Z,100733.70
2022-11-05T05:26:25.320Z,100731.27
2022-11-05T05:28:53.650Z,100732.35
2022-11-05T05:31:21.009Z,100737.35
2022-11-05T05:33:47.443Z,100742.38
2022-11-05T05:36:13.924Z,100742.15
2022-11-05T05:38:40.625Z,100750.85
2022-11-05T05:41:07.470Z,100753.89
2022-11-05T05:43:34.466Z,100757.40
2022-11-05T05:46:05.310Z,100758.61
2022-11-05T05:48:32.079Z,100762.98
2022-11-05T05:51:07.475Z,100772.09
2022-11-05T05:53:34.247Z,100773.86
2022-11-05T05:56:01.408Z,100775.77
2022-11-05T05:58:32.556Z,100774.45
2022-11-05T06:01:04.821Z,100772.02
2022-11-05T06:03:31.612Z,100772.80
2022-11-05T06:06:09.448Z,100770.71
2022-11-05T06:08:36.700Z,100774.05
2022-11-05T06:11:04.464Z,100774.63
2022-11-05T06:13:31.461Z,100778.88
2022-11-05T06:16:02.579Z,100784.09
2022-11-05T06:18:30.477Z,100782.67
2022-11-05T06:21:04.788Z,100783.12
2022-11-05T06:23:33.392Z,100780.96
2022-11-05T06:26:05.272Z,100783.64
2022-11-05T06:28:32.053Z,100789.09
2022-11-05T06:30:58.758Z,100787.59
2022-11-05T06:33:25.830Z,100793.36
2022-11-05T06:35:53.838Z,100795.05
2022-11-05T06:38:20.607Z,100798.45
2022-11-05T06:40:47.210Z,100802.29
2022-11-05T06:43:14.150Z,100801.21
2022-11-05T06:45:41.049Z,100806.73
2022-11-05T06:48:07.484Z,100810.14
2022-11-05T06:50:33.951Z,100814.85
2022-11-05T06:53:02.456Z,100818.58
2022-11-05T06:55:30.850Z,100823.45
2022-11-05T06:57:57.965Z,100823.38
2022-11-05T07:00:24.866Z,100825.08
2022-11-05T07:02:51.452Z,100831.89
2022-11-05T07:05:17.877Z,100831.63
2022-11-05T07:07:45.664Z,100834.53
2022-11-05T07:10:15.702Z,100841.30
2022-11-05T07:12:42.584Z,100842.07
2022-11-05T07:15:11.404Z,100844.05
2022-11-05T07:17:38.624Z,100843.73
2022-11-05T07:20:07.483Z,100847.05
2022-11-05T07:22:35.647Z,100848.94
2022-11-05T07:25:02.129Z,100848.42
2022-11-05T07:27:28.962Z,100856.54
2022-11-05T07:29:55.394Z,100862.11
2022-11-05T07:32:22.040Z,100865.09
2022-11-05T07:34:48.813Z,100862.82
2022-11-05T07:37:16.789Z,100855.42
2022-11-05T07:39:43.315Z,100858.46
2022-11-05T07:42:13.564Z,100862.56
2022-11-05T07:44:40.084Z,100868.32
2022-11-05T07:47:06.964Z,100873.16
2022-11-05T07:49:33.634Z,100874.16
2022-11-05T07:52:00.231Z,100874.38
2022-11-05T07:54:27.232Z,100874.29
2022-11-05T07:56:56.789Z,100876.84
2022-11-05T07:59:23.304Z,100876.67
2022-11-05T08:01:50.069Z,100877.36
2022-11-05T08:04:16.709Z,100880.73
2022-11-05T08:06:43.356Z,100881.14
2022-11-05T08:09:09.825Z,100886.59
2022-11-05T08:11:36.357Z,100888.77
2022-11-05T08:14:04.684Z,100892.46
2022-11-05T08:16:31.087Z,100894.67
2022-11-05T08:18:57.522Z,100899.63
2022-11-05T08:21:23.973Z,100904.88
2022-11-05T08:23:50.422Z,100900.95
2022-11-05T08:26:16.947Z,100901.85
2022-11-05T08:28:43.411Z,100902.23
2022-11-05T08:31:09.846Z,100901.91
2022-11-05T08:33:36.291Z,100907.88
2022-11-05T08:36:04.491Z,100908.90
2022-11-05T08:38:30.991Z,100917.44
2022-11-05T08:40:58.473Z,100922.45
2022-11-05T08:43:25.398Z,100923.63
2022-11-05T08:45:51.893Z,100924.29
2022-11-05T08:48:19.363Z,100926.21
2022-11-05T08:50:47.388Z,100927.02
2022-11-05T08:53:15.199Z,100931.87
2022-11-05T08:55:41.885Z,100928.98
2022-11-05T08:58:12.749Z,100934.49
2022-11-05T09:00:39.849Z,100937.15
2022-11-05T09:03:08.538Z,100937.93
2022-11-05T09:05:37.855Z,100943.53
2022-11-05T09:08:06.014Z,100934.67
2022-11-05T09:10:32.846Z,100940.80
2022-11-05T09:12:59.387Z,100940.45
2022-11-05T09:15:25.947Z,100944.11
2022-11-05T09:17:52.593Z,100948.13
2022-11-05T09:20:19.554Z,100951.45
2022-11-05T09:22:46.803Z,100951.73
2022-11-05T09:25:15.703Z,100953.23
2022-11-05T09:27:42.573Z,100962.42
2022-11-05T09:30:11.162Z,100965.02
2022-11-05T09:32:37.654Z,100966.65
2022-11-05T09:35:05.568Z,100964.65
2022-11-05T09:37:32.046Z,100967.64
2022-11-05T09:39:58.555Z,100971.16
2022-11-05T09:42:32.327Z,100975.31
2022-11-05T09:45:08.123Z,100976.39
2022-11-05T09:47:43.597Z,100971.55
2022-11-05T09:50:18.906Z,100978.75
2022-11-05T09:52:45.680Z,100979.49
2022-11-05T09:55:29.193Z,100982.56
2022-11-05T09:58:02.138Z,100983.08
2022-11-05T10:00:29.906Z,100982.43
2022-11-05T10:03:01.105Z,100980.98
2022-11-05T10:05:28.639Z,100977.90
2022-11-05T10:08:05.174Z,100977.52
2022-11-05T10:10:52.448Z,100986.42
2022-11-05T10:14:05.474Z,100984.58
2022-11-05T10:16:39.556Z,100989.39
2022-11-05T10:19:14.946Z,100991.91
2022-11-05T10:22:05.528Z,100999.45
2022-11-05T10:24:28.570Z,100993.30
2022-11-05T10:26:56.064Z,100997.98
2022-11-05T10:29:34.312Z,100995.57
2022-11-05T10:32:05.652Z,100993.27
2022-11-05T10:34:36.089Z,100998.02
2022-11-05T10:37:03.669Z,100996.45
2022-11-05T10:39:31.551Z,101004.09
2022-11-05T10:42:26.653Z,101004.85
2022-11-05T10:45:30.528Z,101006.23
2022-11-05T10:48:02.885Z,101015.05
2022-11-05T10:50:30.434Z,101003.83
2022-11-05T10:53:04.405Z,101000.79
2022-11-05T10:55:48.598Z,101004.39
2022-11-05T10:58:20.875Z,101002.33
2022-11-05T11:00:53.403Z,101000.16
2022-11-05T11:03:44.066Z,101000.23
2022-11-05T11:06:37.773Z,100998.98
2022-11-05T11:09:08.516Z,101004.14
2022-11-05T11:11:41.537Z,101002.09
2022-11-05T11:14:14.064Z,101004.53
2022-11-05T11:16:43.426Z,101009.85
2022-11-05T11:19:28.397Z,101008.41
2022-11-05T11:22:03.998Z,101007.95
2022-11-05T11:24:37.802Z,101008.58
2022-11-05T11:27:27.000Z,101011.09
2022-11-05T11:30:01.884Z,101008.41
2022-11-05T11:32:36.358Z,101008.37
2022-11-05T11:35:04.437Z,101011.17
2022-11-05T11:37:41.982Z,101007.55
2022-11-05T11:40:14.521Z,101018.15
2022-11-05T11:42:46.443Z,101018.70
2022-11-05T11:45:28.315Z,101015.99
2022-11-05T11:47:56.541Z,101015.70
2022-11-05T11:50:44.268Z,101017.89
2022-11-05T11:53:19.888Z,101010.22
2022-11-05T11:55:55.610Z,101003.11
2022-11-05T11:58:25.226Z,101009.13
2022-11-05T12:01:05.410Z,101003.16
2022-11-05T12:03:41.359Z,101002.05
2022-11-05T12:06:14.672Z,101002.77
2022-11-05T12:09:06.495Z,100998.06
2022-11-05T12:12:02.477Z,100990.36
2022-11-05T12:14:58.312Z,100997.73
2022-11-05T12:17:44.412Z,100995.00
2022-11-05T12:20:22.705Z,100989.38
2022-11-05T12:23:12.895Z,100989.64
2022-11-05T12:25:52.411Z,100975.52
2022-11-05T12:28:27.994Z,100976.48
2022-11-05T12:31:13.573Z,100974.29
2022-11-05T12:33:59.517Z,100972.36
2022-11-05T12:36:47.019Z,100973.04
2022-11-05T12:39:13.371Z,100978.27
2022-11-05T12:42:08.261Z,100973.13
2022-11-05T12:44:53.451Z,100970.78
2022-11-05T12:47:26.000Z,100971.66
2022-11-05T12:50:07.100Z,100968.77
2022-11-05T12:52:33.507Z,100979.52
2022-11-05T12:55:10.314Z,100970.98
2022-11-05T12:57:41.429Z,100974.70
2022-11-05T13:00:14.758Z,100970.20
2022-11-05T13:03:17.041Z,100970.31
2022-11-05T13:05:48.471Z,100971.90
2022-11-05T13:08:21.607Z,100971.71
2022-11-05T13:10:51.845Z,100975.67
2022-11-05T13:13:18.339Z,100976.90
2022-11-05T13:15:53.848Z,100971.38
2022-11-05T13:18:28.068Z,100973.73
2022-11-05T13:20:56.439Z,100971.25
2022-11-05T13:23:50.042Z,100973.92
2022-11-05T13:26:54.928Z,100969.81
2022-11-05T13:29:31.342Z,100972.27
2022-11-05T13:32:33.262Z,100967.25
2022-11-05T13:35:03.004Z,100970.71
2022-11-05T13:37:58.292Z,100970.88
2022-11-05T13:40:48.107Z,100969.14
2022-11-05T13:43:23.877Z,100965.67
2022-11-05T13:46:08.613Z,100962.13
2022-11-05T13:48:52.919Z,100968.05
2022-11-05T13:51:56.721Z,100958.20
2022-11-05T13:54:29.242Z,100964.64
2022-11-05T13:57:29.947Z,100970.54
2022-11-05T14:00:28.449Z,100968.73
2022-11-05T14:02:59.346Z,100973.79
2022-11-05T14:05:33.311Z,100974.14
2022-11-05T14:08:02.416Z,100970.45
2022-11-05T14:10:38.405Z,100970.59
2022-11-05T14:13:20.019Z,100977.02
2022-11-05T14:15:57.684Z,100972.96
2022-11-05T14:18:44.500Z,100974.77
2022-11-05T14:21:26.222Z,100971.55
2022-11-05T14:24:27.347Z,100967.20
2022-11-05T14:27:02.952Z,100964.93
2022-11-05T14:29:44.267Z,100970.12
2022-11-05T14:32:16.706Z,100975.77
2022-11-05T14:34:46.129Z,100968.57
2022-11-05T14:37:17.929Z,100968.36
2022-11-05T14:39:45.705Z,100976.07
2022-11-05T14:42:15.136Z,100973.84
2022-11-05T14:45:02.050Z,100975.30
2022-11-05T14:47:32.935Z,100976.76
2022-11-05T14:50:11.638Z,100980.48
2022-11-05T14:52:40.071Z,100983.20
2022-11-05T14:55:22.987Z,100985.46
2022-11-05T14:57:52.966Z,100984.56
2022-11-05T15:00:28.498Z,100988.70
2022-11-05T15:03:22.843Z,100989.24
2022-11-05T15:05:49.991Z,100999.49
2022-11-05T15:08:37.415Z,101000.18
2022-11-05T15:11:13.143Z,100996.84
2022-11-05T15:14:02.600Z,100994.93
2022-11-05T15:16:58.020Z,100994.44
2022-11-05T15:19:32.967Z,100994.23
2022-11-05T15:22:03.402Z,100994.71
2022-11-05T15:24:31.536Z,100995.13
2022-11-05T15:27:22.312Z,100989.70
2022-11-05T15:29:48.795Z,100989.77
2022-11-05T15:32:23.452Z,100994.19
2022-11-05T15:34:55.675Z,100992.18
2022-11-05T15:37:26.373Z,100992.71
2022-11-05T15:39:55.510Z,100995.53
2022-11-05T15:42:25.418Z,100999.55
2022-11-05T15:44:54.505Z,101003.48
2022-11-05T15:47:31.074Z,101002.39
2022-11-05T15:50:14.099Z,101002.76
2022-11-05T15:52:49.834Z,101004.52
2022-11-05T15:55:23.640Z,101009.02
2022-11-05T15:57:58.965Z,101008.84
2022-11-05T16:00:28.614Z,101006.70
2022-11-05T16:02:59.748Z,101002.70
2022-11-05T16:05:29.244Z,101000.46
2022-11-05T16:07:59.053Z,101003.56
2022-11-05T16:10:31.476Z,101003.72
2022-11-05T16:12:58.333Z,101002.30
2022-11-05T16:15:34.354Z,100997.33
2022-11-05T16:18:01.587Z,100997.48
2022-11-05T16:20:33.826Z,100997.67
2022-11-05T16:23:03.218Z,100996.65
2022-11-05T16:25:29.619Z,100994.38
2022-11-05T16:28:00.550Z,100988.00
2022-11-05T16:30:27.936Z,100990.83
2022-11-05T16:32:55.276Z,100986.61
2022-11-05T16:35:25.066Z,100987.95
2022-11-05T16:37:52.796Z,100991.34
2022-11-05T16:40:24.164Z,100990.96
2022-11-05T16:42:52.946Z,100994.77
2022-11-05T16:45:22.629Z,100994.94
2022-11-05T16:47:49.477Z,100992.08
2022-11-05T16:50:17.582Z,100990.64
2022-11-05T16:52:46.270Z,100991.33
2022-11-05T16:55:14.726Z,100997.73
2022-11-05T16:57:43.780Z,100998.52
2022-11-05T17:00:15.078Z,101004.70
2022-11-05T17:02:42.190Z,101001.11
2022-11-05T17:05:21.300Z,100999.09
2022-11-05T17:07:47.751Z,101005.70
2022-11-05T17:10:14.749Z,101002.45
2022-11-05T17:12:42.103Z,101002.16
2022-11-05T17:15:31.198Z,101005.88
2022-11-05T17:17:59.509Z,101015.56
2022-11-05T17:20:40.791Z,101013.20
2022-11-05T17:23:29.860Z,101014.33
2022-11-05T17:26:02.108Z,101019.83
2022-11-05T17:28:29.321Z,101023.95
2022-11-05T17:31:01.733Z,101030.42
2022-11-05T17:33:28.651Z,101033.85
2022-11-05T17:35:56.152Z,101028.02
2022-11-05T17:38:24.791Z,101024.91
2022-11-05T17:40:51.872Z,101025.59
2022-11-05T17:43:20.000Z,101025.05
2022-11-05T17:45:50.010Z,101024.50
2022-11-05T17:48:16.934Z,101026.08
2022-11-05T17:50:47.615Z,101027.79
2022-11-05T17:53:17.190Z,101030.72
2022-11-05T17:55:45.539Z,101030.48
2022-11-05T17:58:12.352Z,101032.98
2022-11-05T18:00:40.076Z,101034.29
2022-11-05T18:03:06.680Z,101038.09
2022-11-05T18:05:34.688Z,101038.85
2022-11-05T18:08:01.368Z,101040.66
2022-11-05T18:10:27.958Z,101041.69
2022-11-05T18:12:54.570Z,101042.46
2022-11-05T18:15:21.233Z,101039.04
2022-11-05T18:17:47.907Z,101036.98
2022-11-05T18:20:19.217Z,101037.66
2022-11-05T18:22:48.792Z,101040.64
2022-11-05T18:25:15.911Z,101042.27
2022-11-05T18:27:42.552Z,101043.31
2022-11-05T18:30:11.001Z,101043.77
2022-11-05T18:32:38.865Z,101052.13
2022-11-05T18:35:06.713Z,101043.32
2022-11-05T18:37:33.100Z,101035.89
2022-11-05T18:39:59.630Z,101026.06
2022-11-05T18:42:26.156Z,101016.70
2022-11-05T18:44:52.629Z,101022.61
2022-11-05T18:47:19.242Z,101016.93
2022-11-05T18:49:45.784Z,101014.19
2022-11-05T18:52:12.266Z,101012.27
2022-11-05T18:54:38.860Z,101012.38
2022-11-05T18:57:05.320Z,101005.80
2022-11-05T18:59:39.733Z,101003.54
2022-11-05T19:02:08.719Z,101008.38
2022-11-05T19:04:36.652Z,101012.56
2022-11-05T19:07:05.394Z,101017.05
2022-11-05T19:09:36.504Z,101011.89
2022-11-05T19:12:03.931Z,101014.86
2022-11-05T19:14:30.837Z,101014.88
2022-11-05T19:16:58.851Z,101019.27
2022-11-05T19:19:25.670Z,101019.16
2022-11-05T19:21:52.394Z,101014.89
2022-11-05T19:24:19.089Z,101012.27
2022-11-05T19:26:46.770Z,101014.24
2022-11-05T19:29:13.425Z,101018.33
2022-11-05T19:31:40.039Z,101016.05
2022-11-05T19:34:06.445Z,101017.00
2022-11-05T19:36:33.956Z,101012.37
2022-11-05T19:39:04.670Z,101012.67
2022-11-05T19:41:31.231Z,101011.77
2022-11-05T19:44:02.051Z,101011.89
2022-11-05T19:46:30.191Z,101010.14
2022-11-05T19:48:56.906Z,101011.26
2022-11-05T19:51:26.296Z,101005.98
2022-11-05T19:53:55.090Z,100996.99
2022-11-05T19:56:24.645Z,100995.19
2022-11-05T19:58:53.076Z,101000.77
2022-11-05T20:01:21.746Z,101008.37
2022-11-05T20:03:48.725Z,101005.80
2022-11-05T20:06:28.565Z,101008.37
2022-11-05T20:11:45.330Z,101005.80
2022-11-05T20:14:11.863Z,101000.17
2022-11-05T20:16:39.107Z,101010.61
2022-11-05T20:19:12.660Z,101012.02
2022-11-05T20:21:39.846Z,101011.23
2022-11-05T20:24:06.874Z,101013.34
2022-11-05T20:26:33.932Z,101014.79
2022-11-05T20:29:00.570Z,101015.23
2022-11-05T20:31:27.063Z,101016.16
2022-11-05T20:33:53.650Z,101020.61
2022-11-05T20:36:22.883Z,101017.17
2022-11-05T20:38:50.714Z,101015.77
2022-11-05T20:41:18.015Z,101017.33
2022-11-05T20:43:45.365Z,101012.95
2022-11-05T20:46:15.521Z,101010.56
2022-11-05T20:48:43.036Z,101009.02
2022-11-05T20:51:12.017Z,101010.35
2022-11-05T20:53:39.363Z,101012.82
2022-11-05T20:56:09.639Z,101010.77
2022-11-05T20:58:37.992Z,101011.86
2022-11-05T21:01:05.791Z,101008.79
2022-11-05T21:03:32.829Z,101007.22
2022-11-05T21:06:04.655Z,101010.88
2022-11-05T21:08:32.494Z,101013.84
2022-11-05T21:10:59.711Z,101014.42
2022-11-05T21:13:27.453Z,101023.05
2022-11-05T21:15:57.532Z,101022.84
2022-11-05T21:18:27.040Z,101022.22
2022-11-05T21:20:53.876Z,101019.75
2022-11-05T21:23:21.237Z,101018.25
2022-11-05T21:25:48.608Z,101022.70
2022-11-05T21:28:15.754Z,101026.81
2022-11-05T21:30:47.751Z,101021.61
2022-11-05T21:33:15.724Z,101022.98
2022-11-05T21:35:47.727Z,101020.92
2022-11-05T21:38:16.372Z,101013.70
2022-11-05T21:40:44.017Z,101017.15
2022-11-05T21:43:10.653Z,101019.44
2022-11-05T21:45:41.937Z,101021.71
2022-11-05T21:48:09.707Z,101020.42
2022-11-05T21:50:58.000Z,101016.51
2022-11-05T21:53:43.776Z,101016.09
2022-11-05T21:56:35.077Z,101012.02
2022-11-05T21:59:20.202Z,101011.40
2022-11-05T22:01:46.817Z,101004.65
2022-11-05T22:04:13.424Z,101008.93
2022-11-05T22:06:39.900Z,101008.17
2022-11-05T22:09:06.913Z,101007.95
2022-11-05T22:11:37.436Z,101009.37
2022-11-05T22:14:04.321Z,100995.95
2022-11-05T22:16:30.814Z,100992.84
2022-11-05T22:18:58.012Z,100992.58
2022-11-05T22:21:24.643Z,100990.27
2022-11-05T22:23:52.216Z,100996.29
2022-11-05T22:26:18.925Z,101002.80
2022-11-05T22:28:45.546Z,101002.48
2022-11-05T22:31:13.752Z,100997.21
2022-11-05T22:33:40.245Z,100993.23
2022-11-05T22:36:07.235Z,100992.45
2022-11-05T22:38:33.814Z,100994.21
2022-11-05T22:41:06.496Z,100992.06
2022-11-05T22:43:33.133Z,100988.90
2022-11-05T22:46:08.366Z,100989.98
2022-11-05T22:48:36.328Z,100990.72
2022-11-05T22:51:11.191Z,100988.98
2022-11-05T22:53:39.332Z,100989.82
2022-11-05T22:56:08.700Z,100990.52
2022-11-05T22:58:35.864Z,100991.54
2022-11-05T23:01:03.893Z,100990.13
2022-11-05T23:03:31.792Z,100983.69
2022-11-05T23:06:32.254Z,100976.92
2022-11-05T23:09:18.534Z,100965.52
2022-11-05T23:11:49.485Z,100961.13
2022-11-05T23:14:16.331Z,100954.39
2022-11-05T23:17:02.160Z,100952.87
2022-11-05T23:19:48.457Z,100947.71
2022-11-05T23:22:43.169Z,100947.10
2022-11-05T23:25:13.422Z,100952.92
2022-11-05T23:27:41.308Z,100949.95
2022-11-05T23:30:11.893Z,100951.17
2022-11-05T23:32:39.080Z,100950.34
2022-11-05T23:35:06.689Z,100951.15
2022-11-05T23:37:51.984Z,100950.73
2022-11-05T23:40:22.123Z,100951.75
2022-11-05T23:43:07.283Z,100946.09
2022-11-05T23:45:49.502Z,100946.54
2022-11-05T23:48:36.841Z,100948.05
2022-11-05T23:51:06.736Z,100940.55
2022-11-05T23:53:36.177Z,100933.44
2022-11-05T23:56:14.499Z,100932.33
2022-11-05T23:58:42.014Z,100932.32
